BAW927E EDDM-EGLL
Flight info
| Callsign | BAW927E |
|---|---|
| Flight time | N/A |
| Altitude | 34000 |
| Route | GIVMI6E GIVMI Y101 INBED DCT REKDI DCT LOHRE DCT ADKUV DCT DENUT L608 LOGAN |
| Aircraft | A320/M-SDE3FGHIRWY/LB1 |
Departure
| Time | 2026-05-04 11:02 |
|---|---|
| Airport | Munich Airport (EDDM) |
Arrival
| Time | N/A |
|---|---|
| Airport | London Heathrow Airport (EGLL) |
| Time | Latitude | Longitude | Altitude | Speed | Heading |
|---|---|---|---|---|---|
| 2026-05-04 10:37 | 48.35778 | 11.79237 | 1467 ft | 0 kts | 263° |
| 2026-05-04 10:42 | 48.35780 | 11.79258 | 1459 ft | 3 kts | 262° |
| 2026-05-04 10:42 | 48.35783 | 11.79287 | 1460 ft | 3 kts | 259° |
| 2026-05-04 10:43 | 48.35787 | 11.79317 | 1458 ft | 3 kts | 256° |
| 2026-05-04 10:44 | 48.35819 | 11.79391 | 1459 ft | 0 kts | 173° |
| 2026-05-04 10:49 | 48.35815 | 11.79391 | 1456 ft | 0 kts | 173° |
| 2026-05-04 10:51 | 48.35793 | 11.79395 | 1460 ft | 7 kts | 173° |
| 2026-05-04 10:52 | 48.35718 | 11.79409 | 1459 ft | 13 kts | 173° |
| 2026-05-04 10:52 | 48.35610 | 11.79426 | 1462 ft | 18 kts | 177° |
| 2026-05-04 10:52 | 48.35472 | 11.79450 | 1467 ft | 22 kts | 173° |
| 2026-05-04 10:54 | 48.34744 | 11.78977 | 1467 ft | 18 kts | 263° |
| 2026-05-04 10:54 | 48.34729 | 11.78777 | 1467 ft | 20 kts | 264° |
| 2026-05-04 10:56 | 48.34614 | 11.77266 | 1466 ft | 19 kts | 263° |
| 2026-05-04 10:56 | 48.34597 | 11.77054 | 1466 ft | 22 kts | 263° |
| 2026-05-04 10:56 | 48.34579 | 11.76819 | 1462 ft | 23 kts | 263° |
| 2026-05-04 10:57 | 48.34560 | 11.76568 | 1464 ft | 25 kts | 263° |
| 2026-05-04 10:57 | 48.34540 | 11.76306 | 1466 ft | 23 kts | 263° |
| 2026-05-04 10:57 | 48.34526 | 11.76113 | 1466 ft | 8 kts | 264° |
| 2026-05-04 10:57 | 48.34519 | 11.76023 | 1463 ft | 10 kts | 263° |
| 2026-05-04 10:58 | 48.34511 | 11.75916 | 1459 ft | 11 kts | 263° |
| 2026-05-04 10:58 | 48.34501 | 11.75797 | 1465 ft | 12 kts | 263° |
| 2026-05-04 10:58 | 48.34490 | 11.75660 | 1466 ft | 14 kts | 262° |
| 2026-05-04 10:58 | 48.34477 | 11.75508 | 1464 ft | 15 kts | 263° |
| 2026-05-04 10:59 | 48.34467 | 11.75383 | 1466 ft | 10 kts | 264° |
| 2026-05-04 10:59 | 48.34459 | 11.75277 | 1466 ft | 11 kts | 261° |
| 2026-05-04 10:59 | 48.34402 | 11.75212 | 1463 ft | 12 kts | 186° |
| 2026-05-04 10:59 | 48.34316 | 11.75224 | 1463 ft | 13 kts | 174° |
| 2026-05-04 11:00 | 48.34221 | 11.75241 | 1464 ft | 14 kts | 173° |
| 2026-05-04 11:01 | 48.34420 | 11.79662 | 1594 ft | 181 kts | 83° |
| 2026-05-04 11:02 | 48.34567 | 11.81554 | 2177 ft | 187 kts | 83° |
| 2026-05-04 11:02 | 48.34722 | 11.83534 | 2835 ft | 193 kts | 82° |
| 2026-05-04 11:05 | 48.53789 | 11.64706 | 12681 ft | 303 kts | 311° |
| 2026-05-04 11:06 | 48.55264 | 11.62438 | 13373 ft | 307 kts | 311° |
| 2026-05-04 11:06 | 48.56777 | 11.60117 | 14039 ft | 310 kts | 311° |
| 2026-05-04 11:06 | 48.58261 | 11.57721 | 14342 ft | 326 kts | 308° |
| 2026-05-04 11:06 | 48.59791 | 11.55057 | 14478 ft | 345 kts | 307° |
| 2026-05-04 11:08 | 48.71433 | 11.35137 | 18397 ft | 378 kts | 322° |
| 2026-05-04 11:10 | 48.87594 | 11.20341 | 22089 ft | 403 kts | 339° |
| 2026-05-04 11:12 | 49.06649 | 11.10664 | 25252 ft | 421 kts | 339° |
| 2026-05-04 11:12 | 49.09441 | 11.09242 | 25649 ft | 423 kts | 339° |
| 2026-05-04 11:12 | 49.12209 | 11.07831 | 26043 ft | 425 kts | 338° |
| 2026-05-04 11:12 | 49.15034 | 11.06393 | 26424 ft | 428 kts | 338° |
| 2026-05-04 11:13 | 49.17865 | 11.04953 | 26786 ft | 430 kts | 338° |
| 2026-05-04 11:13 | 49.20713 | 11.03500 | 27156 ft | 432 kts | 338° |
| 2026-05-04 11:13 | 49.23582 | 11.02028 | 27515 ft | 435 kts | 338° |
| 2026-05-04 11:13 | 49.26429 | 11.00559 | 27834 ft | 437 kts | 338° |
| 2026-05-04 11:14 | 49.29318 | 10.99058 | 28185 ft | 440 kts | 338° |
| 2026-05-04 11:14 | 49.32225 | 10.97547 | 28533 ft | 442 kts | 338° |
| 2026-05-04 11:14 | 49.35124 | 10.95915 | 28875 ft | 442 kts | 332° |
| 2026-05-04 11:16 | 49.49964 | 10.72929 | 31289 ft | 437 kts | 305° |
| 2026-05-04 11:16 | 49.51875 | 10.69304 | 31712 ft | 435 kts | 304° |
| 2026-05-04 11:16 | 49.53786 | 10.65670 | 32157 ft | 433 kts | 304° |
| 2026-05-04 11:17 | 49.55678 | 10.62066 | 32611 ft | 431 kts | 304° |
| 2026-05-04 11:17 | 49.57559 | 10.58473 | 33051 ft | 429 kts | 304° |
| 2026-05-04 11:19 | 49.70064 | 10.33284 | 34023 ft | 418 kts | 298° |
| 2026-05-04 11:19 | 49.71639 | 10.29576 | 34013 ft | 417 kts | 298° |
| 2026-05-04 11:19 | 49.74833 | 10.22076 | 34021 ft | 418 kts | 299° |
| 2026-05-04 11:20 | 49.78087 | 10.14620 | 34012 ft | 418 kts | 299° |
| 2026-05-04 11:20 | 49.81375 | 10.07175 | 34012 ft | 418 kts | 299° |
| 2026-05-04 11:22 | 49.94385 | 9.77265 | 34034 ft | 419 kts | 298° |
| 2026-05-04 11:23 | 49.97633 | 9.69738 | 34034 ft | 419 kts | 298° |
| 2026-05-04 11:24 | 50.06916 | 9.46911 | 34042 ft | 409 kts | 285° |
| 2026-05-04 11:25 | 50.07749 | 9.42701 | 34038 ft | 405 kts | 281° |
| 2026-05-04 11:25 | 50.09232 | 9.34275 | 34031 ft | 405 kts | 281° |
| 2026-05-04 11:27 | 50.15897 | 8.96195 | 34036 ft | 401 kts | 280° |
| 2026-05-04 11:28 | 50.17335 | 8.87852 | 34035 ft | 399 kts | 280° |
| 2026-05-04 11:28 | 50.18770 | 8.79475 | 34030 ft | 398 kts | 280° |
| 2026-05-04 11:29 | 50.20190 | 8.71125 | 34024 ft | 398 kts | 280° |
| 2026-05-04 11:29 | 50.21594 | 8.62842 | 34028 ft | 397 kts | 280° |
| 2026-05-04 11:33 | 50.31319 | 8.04521 | 34026 ft | 394 kts | 279° |
| 2026-05-04 11:33 | 50.32674 | 7.96243 | 34023 ft | 394 kts | 279° |
| 2026-05-04 11:34 | 50.34022 | 7.87932 | 34017 ft | 393 kts | 279° |
| 2026-05-04 11:34 | 50.35136 | 7.81028 | 34035 ft | 393 kts | 279° |
| 2026-05-04 11:35 | 50.36474 | 7.72719 | 34027 ft | 393 kts | 279° |
| 2026-05-04 11:35 | 50.37807 | 7.64411 | 34022 ft | 392 kts | 278° |
| 2026-05-04 11:36 | 50.39123 | 7.56167 | 34021 ft | 392 kts | 278° |
| 2026-05-04 11:36 | 50.40442 | 7.47867 | 34019 ft | 392 kts | 278° |
| 2026-05-04 11:37 | 50.41753 | 7.39559 | 34042 ft | 392 kts | 278° |
| 2026-05-04 11:37 | 50.43048 | 7.31297 | 34028 ft | 392 kts | 278° |
| 2026-05-04 11:38 | 50.44351 | 7.22963 | 34020 ft | 392 kts | 278° |
| 2026-05-04 11:38 | 50.45651 | 7.14621 | 34018 ft | 393 kts | 278° |
| 2026-05-04 11:39 | 50.46937 | 7.06332 | 34015 ft | 393 kts | 278° |
| 2026-05-04 11:41 | 50.51797 | 6.77279 | 33994 ft | 398 kts | 285° |
| 2026-05-04 11:41 | 50.53806 | 6.69194 | 33982 ft | 398 kts | 285° |
| 2026-05-04 11:42 | 50.55813 | 6.61065 | 33980 ft | 399 kts | 284° |
| 2026-05-04 11:42 | 50.57811 | 6.52902 | 33985 ft | 399 kts | 284° |
| 2026-05-04 11:43 | 50.59791 | 6.44776 | 33996 ft | 400 kts | 284° |
| 2026-05-04 11:43 | 50.61781 | 6.36590 | 33990 ft | 400 kts | 284° |
| 2026-05-04 11:44 | 50.63761 | 6.28456 | 33989 ft | 400 kts | 284° |
| 2026-05-04 11:44 | 50.65758 | 6.20232 | 33989 ft | 400 kts | 284° |
| 2026-05-04 11:45 | 50.67737 | 6.12001 | 33999 ft | 400 kts | 284° |
| 2026-05-04 11:45 | 50.69690 | 6.03811 | 33999 ft | 401 kts | 284° |
| 2026-05-04 11:46 | 50.71651 | 5.95596 | 33988 ft | 402 kts | 284° |
| 2026-05-04 11:46 | 50.73634 | 5.87281 | 34005 ft | 407 kts | 284° |
| 2026-05-04 11:47 | 50.75656 | 5.78714 | 34001 ft | 425 kts | 284° |
| 2026-05-04 11:47 | 50.77739 | 5.69873 | 34003 ft | 438 kts | 284° |
| 2026-05-04 11:48 | 50.79891 | 5.60761 | 34023 ft | 443 kts | 284° |
| 2026-05-04 11:48 | 50.82029 | 5.51675 | 34002 ft | 443 kts | 284° |
| 2026-05-04 11:49 | 50.84168 | 5.42514 | 34006 ft | 443 kts | 284° |
| 2026-05-04 11:49 | 50.86291 | 5.33349 | 34012 ft | 443 kts | 284° |
| 2026-05-04 11:50 | 50.88395 | 5.24233 | 34015 ft | 443 kts | 284° |
| 2026-05-04 11:50 | 50.90512 | 5.15031 | 34036 ft | 444 kts | 284° |
| 2026-05-04 11:51 | 50.92626 | 5.05802 | 34036 ft | 444 kts | 284° |
| 2026-05-04 11:51 | 50.94722 | 4.96633 | 34031 ft | 444 kts | 284° |
| 2026-05-04 11:52 | 50.96826 | 4.87387 | 34029 ft | 444 kts | 284° |
| 2026-05-04 11:52 | 50.98915 | 4.78136 | 34029 ft | 445 kts | 284° |
| 2026-05-04 11:53 | 51.00999 | 4.68893 | 34056 ft | 445 kts | 283° |
| 2026-05-04 11:53 | 51.03070 | 4.59674 | 34033 ft | 446 kts | 283° |
| 2026-05-04 11:55 | 51.11318 | 4.22474 | 34023 ft | 447 kts | 283° |
| 2026-05-04 11:56 | 51.13373 | 4.13130 | 34020 ft | 447 kts | 283° |
| 2026-05-04 11:56 | 51.15411 | 4.03810 | 34020 ft | 447 kts | 283° |
| 2026-05-04 11:57 | 51.17447 | 3.94434 | 34016 ft | 447 kts | 283° |
| 2026-05-04 11:57 | 51.19458 | 3.85122 | 34015 ft | 447 kts | 283° |
| 2026-05-04 11:58 | 51.21477 | 3.75734 | 34026 ft | 448 kts | 283° |
| 2026-05-04 11:58 | 51.23547 | 3.66349 | 34012 ft | 452 kts | 288° |
| 2026-05-04 11:59 | 51.26672 | 3.57480 | 34021 ft | 459 kts | 294° |
| 2026-05-04 11:59 | 51.29939 | 3.48708 | 34035 ft | 459 kts | 294° |
| 2026-05-04 12:00 | 51.33167 | 3.39982 | 34036 ft | 459 kts | 294° |
| 2026-05-04 12:00 | 51.35922 | 3.30885 | 34050 ft | 451 kts | 284° |
| 2026-05-04 12:01 | 51.38137 | 3.21514 | 34031 ft | 453 kts | 284° |
| 2026-05-04 12:02 | 51.45969 | 2.88206 | 34029 ft | 459 kts | 284° |
| 2026-05-04 12:03 | 51.48218 | 2.78572 | 34027 ft | 460 kts | 284° |
| 2026-05-04 12:03 | 51.50453 | 2.68923 | 34044 ft | 461 kts | 284° |
| 2026-05-04 12:04 | 51.52673 | 2.59291 | 34044 ft | 462 kts | 284° |
| 2026-05-04 12:04 | 51.54900 | 2.49594 | 34053 ft | 462 kts | 284° |
| 2026-05-04 12:05 | 51.57098 | 2.40029 | 33732 ft | 447 kts | 285° |
| 2026-05-04 12:05 | 51.58158 | 2.35413 | 33585 ft | 433 kts | 285° |
| 2026-05-04 12:05 | 51.59181 | 2.30932 | 33446 ft | 421 kts | 284° |
| 2026-05-04 12:06 | 51.60176 | 2.26557 | 33301 ft | 409 kts | 284° |
| 2026-05-04 12:06 | 51.61144 | 2.22284 | 32993 ft | 402 kts | 284° |
| 2026-05-04 12:06 | 51.62092 | 2.18081 | 32581 ft | 398 kts | 284° |
| 2026-05-04 12:06 | 51.63018 | 2.13962 | 32150 ft | 395 kts | 284° |
| 2026-05-04 12:07 | 51.63949 | 2.09816 | 31717 ft | 392 kts | 284° |
| 2026-05-04 12:07 | 51.64873 | 2.05701 | 31285 ft | 390 kts | 284° |
| 2026-05-04 12:07 | 51.65794 | 2.01609 | 30856 ft | 389 kts | 284° |
| 2026-05-04 12:07 | 51.66718 | 1.97486 | 30283 ft | 391 kts | 284° |
| 2026-05-04 12:08 | 51.67643 | 1.93341 | 29659 ft | 393 kts | 285° |
| 2026-05-04 12:08 | 51.68569 | 1.89180 | 29015 ft | 394 kts | 285° |
| 2026-05-04 12:08 | 51.69481 | 1.85071 | 28396 ft | 395 kts | 285° |
| 2026-05-04 12:08 | 51.70409 | 1.80887 | 27760 ft | 395 kts | 286° |
| 2026-05-04 12:09 | 51.71331 | 1.76712 | 27153 ft | 395 kts | 286° |
| 2026-05-04 12:09 | 51.72251 | 1.72541 | 26560 ft | 394 kts | 286° |
| 2026-05-04 12:09 | 51.73174 | 1.68364 | 25966 ft | 394 kts | 286° |
| 2026-05-04 12:09 | 51.74064 | 1.64183 | 25396 ft | 392 kts | 282° |
| 2026-05-04 12:10 | 51.74509 | 1.59895 | 24903 ft | 385 kts | 270° |
| 2026-05-04 12:10 | 51.74411 | 1.55653 | 24427 ft | 381 kts | 262° |
| 2026-05-04 12:10 | 51.74136 | 1.51395 | 23949 ft | 379 kts | 263° |
| 2026-05-04 12:10 | 51.73864 | 1.47175 | 23458 ft | 377 kts | 263° |
| 2026-05-04 12:11 | 51.73592 | 1.42964 | 22909 ft | 376 kts | 263° |
| 2026-05-04 12:11 | 51.73321 | 1.38764 | 22365 ft | 376 kts | 263° |
| 2026-05-04 12:11 | 51.73052 | 1.34578 | 21831 ft | 375 kts | 263° |
| 2026-05-04 12:11 | 51.72780 | 1.30401 | 21306 ft | 374 kts | 263° |
| 2026-05-04 12:12 | 51.72504 | 1.26223 | 20792 ft | 373 kts | 262° |
| 2026-05-04 12:12 | 51.72225 | 1.22072 | 20285 ft | 372 kts | 262° |
| 2026-05-04 12:12 | 51.71947 | 1.17983 | 19793 ft | 370 kts | 262° |
| 2026-05-04 12:12 | 51.71668 | 1.13860 | 19293 ft | 369 kts | 262° |
| 2026-05-04 12:13 | 51.71394 | 1.09752 | 18815 ft | 366 kts | 263° |
| 2026-05-04 12:14 | 51.69490 | 0.82072 | 15963 ft | 329 kts | 262° |
| 2026-05-04 12:15 | 51.69229 | 0.78401 | 15535 ft | 327 kts | 262° |
| 2026-05-04 12:15 | 51.68967 | 0.74752 | 15110 ft | 326 kts | 262° |
| 2026-05-04 12:15 | 51.68706 | 0.71126 | 14693 ft | 324 kts | 262° |
| 2026-05-04 12:15 | 51.68448 | 0.67522 | 14281 ft | 323 kts | 262° |
| 2026-05-04 12:16 | 51.68195 | 0.63953 | 13877 ft | 321 kts | 262° |
| 2026-05-04 12:16 | 51.67945 | 0.60387 | 13428 ft | 320 kts | 262° |
| 2026-05-04 12:16 | 51.67692 | 0.56833 | 12969 ft | 318 kts | 262° |
| 2026-05-04 12:16 | 51.67414 | 0.53350 | 12536 ft | 316 kts | 261° |
| 2026-05-04 12:17 | 51.67122 | 0.49851 | 12097 ft | 315 kts | 261° |
| 2026-05-04 12:17 | 51.66830 | 0.46353 | 11664 ft | 313 kts | 261° |
| 2026-05-04 12:17 | 51.66544 | 0.42879 | 11236 ft | 312 kts | 261° |
| 2026-05-04 12:17 | 51.66258 | 0.39415 | 10814 ft | 310 kts | 261° |
| 2026-05-04 12:18 | 51.65976 | 0.36006 | 10399 ft | 309 kts | 261° |
| 2026-05-04 12:18 | 51.65690 | 0.32575 | 9997 ft | 308 kts | 261° |
| 2026-05-04 12:18 | 51.65406 | 0.29154 | 9545 ft | 308 kts | 261° |
| 2026-05-04 12:18 | 51.65122 | 0.25746 | 9093 ft | 306 kts | 261° |
| 2026-05-04 12:19 | 51.64841 | 0.22350 | 8648 ft | 305 kts | 261° |
| 2026-05-04 12:19 | 51.64557 | 0.18971 | 8210 ft | 303 kts | 261° |
| 2026-05-04 12:19 | 51.64278 | 0.15661 | 7783 ft | 302 kts | 261° |
| 2026-05-04 12:19 | 51.63993 | 0.12329 | 7354 ft | 300 kts | 261° |
| 2026-05-04 12:20 | 51.63706 | 0.09005 | 7055 ft | 295 kts | 262° |
| 2026-05-04 12:20 | 51.63433 | 0.05804 | 7026 ft | 280 kts | 261° |
| 2026-05-04 12:20 | 51.63180 | 0.02776 | 7028 ft | 269 kts | 261° |
| 2026-05-04 12:20 | 51.62937 | -0.00165 | 7061 ft | 269 kts | 261° |
| 2026-05-04 12:21 | 51.62687 | -0.03143 | 6831 ft | 267 kts | 261° |
| 2026-05-04 12:21 | 51.62447 | -0.06109 | 6535 ft | 266 kts | 262° |
| 2026-05-04 12:21 | 51.62199 | -0.09075 | 6220 ft | 266 kts | 261° |
| 2026-05-04 12:21 | 51.61957 | -0.11990 | 5905 ft | 265 kts | 261° |
| 2026-05-04 12:22 | 51.61714 | -0.14927 | 5564 ft | 264 kts | 261° |
| 2026-05-04 12:22 | 51.61465 | -0.17863 | 5219 ft | 264 kts | 261° |
| 2026-05-04 12:22 | 51.61212 | -0.20815 | 4694 ft | 271 kts | 261° |
| 2026-05-04 12:22 | 51.60938 | -0.23908 | 3920 ft | 286 kts | 261° |
| 2026-05-04 12:23 | 51.60635 | -0.27143 | 3265 ft | 295 kts | 261° |
| 2026-05-04 12:23 | 51.60322 | -0.30372 | 3027 ft | 286 kts | 261° |
| 2026-05-04 12:23 | 51.60019 | -0.33456 | 2991 ft | 271 kts | 261° |
| 2026-05-04 12:23 | 51.59731 | -0.36373 | 3000 ft | 256 kts | 261° |
| 2026-05-04 12:24 | 51.59462 | -0.39084 | 3007 ft | 241 kts | 261° |
| 2026-05-04 12:24 | 51.59204 | -0.41662 | 3006 ft | 226 kts | 261° |
| 2026-05-04 12:24 | 51.59055 | -0.44162 | 3010 ft | 223 kts | 275° |
| 2026-05-04 12:24 | 51.59255 | -0.46629 | 3019 ft | 223 kts | 280° |
| 2026-05-04 12:25 | 51.59523 | -0.49084 | 3013 ft | 222 kts | 281° |
| 2026-05-04 12:25 | 51.59801 | -0.51498 | 3012 ft | 222 kts | 281° |
| 2026-05-04 12:25 | 51.60084 | -0.53942 | 3005 ft | 222 kts | 281° |
| 2026-05-04 12:25 | 51.60367 | -0.56389 | 3006 ft | 223 kts | 281° |
| 2026-05-04 12:26 | 51.60554 | -0.58016 | 3007 ft | 223 kts | 281° |
| 2026-05-04 12:26 | 51.60834 | -0.60471 | 3009 ft | 222 kts | 281° |
| 2026-05-04 12:26 | 51.61118 | -0.62914 | 3001 ft | 222 kts | 281° |
| 2026-05-04 12:26 | 51.61400 | -0.65364 | 3013 ft | 223 kts | 281° |
| 2026-05-04 12:27 | 51.61681 | -0.67810 | 3009 ft | 222 kts | 281° |
| 2026-05-04 12:27 | 51.61965 | -0.70252 | 3001 ft | 222 kts | 281° |
| 2026-05-04 12:27 | 51.62248 | -0.72688 | 3006 ft | 222 kts | 281° |
| 2026-05-04 12:27 | 51.62528 | -0.75096 | 2998 ft | 222 kts | 281° |
| 2026-05-04 12:28 | 51.62676 | -0.77557 | 3008 ft | 223 kts | 261° |
| 2026-05-04 12:28 | 51.62044 | -0.79802 | 3014 ft | 223 kts | 227° |
| 2026-05-04 12:28 | 51.60793 | -0.81256 | 3010 ft | 223 kts | 209° |
| 2026-05-04 12:28 | 51.59453 | -0.82532 | 3005 ft | 224 kts | 211° |
| 2026-05-04 12:29 | 51.58124 | -0.83836 | 3015 ft | 223 kts | 211° |
| 2026-05-04 12:29 | 51.56797 | -0.85136 | 3008 ft | 224 kts | 211° |
| 2026-05-04 12:29 | 51.55466 | -0.86443 | 3008 ft | 223 kts | 211° |
| 2026-05-04 12:29 | 51.54157 | -0.87725 | 3006 ft | 224 kts | 211° |
| 2026-05-04 12:30 | 51.52829 | -0.89026 | 3008 ft | 224 kts | 211° |
| 2026-05-04 12:30 | 51.51498 | -0.90333 | 3009 ft | 223 kts | 211° |
| 2026-05-04 12:30 | 51.50169 | -0.91635 | 3014 ft | 224 kts | 210° |
| 2026-05-04 12:30 | 51.48716 | -0.92444 | 3015 ft | 222 kts | 180° |
| 2026-05-04 12:31 | 51.47259 | -0.91859 | 3001 ft | 212 kts | 145° |
| 2026-05-04 12:31 | 51.46341 | -0.90116 | 3002 ft | 206 kts | 109° |
| 2026-05-04 12:31 | 51.46107 | -0.87892 | 3013 ft | 206 kts | 84° |
| 2026-05-04 12:31 | 51.46350 | -0.85619 | 3011 ft | 207 kts | 79° |
| 2026-05-04 12:32 | 51.46620 | -0.83373 | 3052 ft | 202 kts | 78° |
| 2026-05-04 12:32 | 51.47132 | -0.79151 | 2991 ft | 175 kts | 78° |
| 2026-05-04 12:32 | 51.47351 | -0.77352 | 2988 ft | 156 kts | 78° |
| 2026-05-04 12:33 | 51.47495 | -0.75719 | 2996 ft | 148 kts | 84° |
| 2026-05-04 12:33 | 51.47565 | -0.74116 | 3013 ft | 144 kts | 86° |
| 2026-05-04 12:33 | 51.47602 | -0.72510 | 2961 ft | 143 kts | 88° |
| 2026-05-04 12:33 | 51.47624 | -0.70916 | 2824 ft | 141 kts | 88° |
| 2026-05-04 12:34 | 51.47639 | -0.69334 | 2657 ft | 141 kts | 88° |
| 2026-05-04 12:34 | 51.47651 | -0.67758 | 2475 ft | 141 kts | 88° |
| 2026-05-04 12:34 | 51.47661 | -0.66192 | 2291 ft | 140 kts | 88° |